createdAt,value
2018-12-08T00:00:33.922Z,34.50
2018-12-08T00:01:33.903Z,36.70
2018-12-08T00:02:33.892Z,31.90
2018-12-08T00:03:33.876Z,31.90
2018-12-08T00:04:33.876Z,34.80
2018-12-08T00:05:33.855Z,30.00
2018-12-08T00:06:33.841Z,31.60
2018-12-08T00:07:33.840Z,34.90
2018-12-08T00:08:33.829Z,36.10
2018-12-08T00:09:33.814Z,28.60
2018-12-08T00:10:33.800Z,38.50
2018-12-08T00:11:33.792Z,37.30
2018-12-08T00:12:33.789Z,36.30
2018-12-08T00:13:33.763Z,37.90
2018-12-08T00:14:33.764Z,38.80
2018-12-08T00:15:33.749Z,40.40
2018-12-08T00:16:33.740Z,40.60
2018-12-08T00:17:33.808Z,41.20
2018-12-08T00:18:33.727Z,41.20
2018-12-08T00:19:33.705Z,41.70
2018-12-08T00:20:33.696Z,45.00
2018-12-08T00:21:33.688Z,41.20
2018-12-08T00:22:33.679Z,41.00
2018-12-08T00:23:33.675Z,40.20
2018-12-08T00:24:34.624Z,38.60
2018-12-08T00:25:33.637Z,38.80
2018-12-08T00:26:33.632Z,42.70
2018-12-08T00:27:33.627Z,47.90
2018-12-08T00:28:33.615Z,52.50
2018-12-08T00:29:33.599Z,50.10
2018-12-08T00:30:33.588Z,48.50
2018-12-08T00:31:34.120Z,46.80
2018-12-08T00:32:33.565Z,49.20
2018-12-08T00:33:33.557Z,48.80
2018-12-08T00:34:33.541Z,45.80
2018-12-08T00:35:33.563Z,46.90
2018-12-08T00:36:33.517Z,42.20
2018-12-08T00:37:33.513Z,36.90
2018-12-08T00:38:33.498Z,45.00
2018-12-08T00:39:33.489Z,41.10
2018-12-08T00:40:33.488Z,39.50
2018-12-08T00:41:33.467Z,47.30
2018-12-08T00:42:33.459Z,36.20
2018-12-08T00:43:33.460Z,14.20
2018-12-08T00:44:33.441Z,12.10
2018-12-08T00:45:33.436Z,26.10
2018-12-08T00:46:33.410Z,8.60
2018-12-08T00:47:33.406Z,6.90
2018-12-08T00:48:33.388Z,7.30
2018-12-08T00:49:33.419Z,17.10
2018-12-08T00:50:33.374Z,8.20
2018-12-08T00:51:33.372Z,6.30
2018-12-08T00:52:33.437Z,7.10
2018-12-08T00:53:33.342Z,8.30
2018-12-08T00:54:33.326Z,10.60
2018-12-08T00:55:33.320Z,8.70
2018-12-08T00:56:33.318Z,9.10
2018-12-08T00:57:33.294Z,9.70
2018-12-08T00:58:33.286Z,11.40
2018-12-08T00:59:33.283Z,7.80
2018-12-08T01:00:33.267Z,7.80
2018-12-08T01:01:33.255Z,14.60
2018-12-08T01:02:33.250Z,13.40
2018-12-08T01:03:33.235Z,9.50
2018-12-08T01:04:33.220Z,11.80
2018-12-08T01:05:33.211Z,8.30
2018-12-08T01:06:33.200Z,8.60
2018-12-08T01:07:33.187Z,7.90
2018-12-08T01:08:33.171Z,12.90
2018-12-08T01:09:33.168Z,10.80
2018-12-08T01:10:33.165Z,10.70
2018-12-08T01:11:33.144Z,7.60
2018-12-08T01:12:33.142Z,8.90
2018-12-08T01:13:33.127Z,7.50
2018-12-08T01:14:33.161Z,7.00
2018-12-08T01:15:33.103Z,8.30
2018-12-08T01:16:33.096Z,8.80
2018-12-08T01:17:33.081Z,8.40
2018-12-08T01:18:33.083Z,6.40
2018-12-08T01:19:33.063Z,7.70
2018-12-08T01:20:33.053Z,7.50
2018-12-08T01:21:33.055Z,9.40
2018-12-08T01:22:33.031Z,7.00
2018-12-08T01:23:33.020Z,9.50
2018-12-08T01:24:32.999Z,9.10
2018-12-08T01:25:32.998Z,10.20
2018-12-08T01:26:32.983Z,7.70
2018-12-08T01:27:32.969Z,9.30
2018-12-08T01:28:32.965Z,10.30
2018-12-08T01:29:32.992Z,11.40
2018-12-08T01:30:32.957Z,8.60
2018-12-08T01:31:32.953Z,11.60
2018-12-08T01:32:32.929Z,10.60
2018-12-08T01:33:32.910Z,9.20
2018-12-08T01:34:32.909Z,7.00
2018-12-08T01:35:32.892Z,9.50
2018-12-08T01:36:32.887Z,9.90
2018-12-08T01:37:32.881Z,6.90
2018-12-08T01:38:32.870Z,10.30
2018-12-08T01:39:32.856Z,8.00
2018-12-08T01:40:32.861Z,7.40
2018-12-08T01:41:32.831Z,8.70
2018-12-08T01:42:32.816Z,6.80
2018-12-08T01:43:32.806Z,12.10
2018-12-08T01:44:32.805Z,29.80
2018-12-08T01:45:32.781Z,50.20
2018-12-08T01:46:32.774Z,70.70
2018-12-08T01:47:32.774Z,73.70
2018-12-08T01:48:32.768Z,86.50
2018-12-08T01:49:32.743Z,90.90
2018-12-08T01:50:32.730Z,88.80
2018-12-08T01:51:32.720Z,75.80
2018-12-08T01:52:32.723Z,64.70
2018-12-08T01:53:32.721Z,50.20
2018-12-08T01:54:32.685Z,46.40
2018-12-08T01:55:32.677Z,42.00
2018-12-08T01:56:32.671Z,39.30
2018-12-08T01:57:32.660Z,36.50
2018-12-08T01:58:32.644Z,33.90
2018-12-08T01:59:32.645Z,34.80
2018-12-08T02:00:32.637Z,32.00
2018-12-08T02:01:32.636Z,33.20
2018-12-08T02:02:32.606Z,36.30
2018-12-08T02:03:32.663Z,32.30
2018-12-08T02:04:32.586Z,36.50
2018-12-08T02:05:32.571Z,54.20
2018-12-08T02:06:32.563Z,64.20
2018-12-08T02:07:32.546Z,58.90
2018-12-08T02:08:32.543Z,56.70
2018-12-08T02:09:32.532Z,52.30
2018-12-08T02:10:32.524Z,53.60
2018-12-08T02:11:32.509Z,51.30
2018-12-08T02:12:32.566Z,48.50
2018-12-08T02:13:32.493Z,43.70
2018-12-08T02:14:32.476Z,40.70
2018-12-08T02:15:32.470Z,42.80
2018-12-08T02:16:32.456Z,38.30
2018-12-08T02:17:32.449Z,37.40
2018-12-08T02:18:32.439Z,42.10
2018-12-08T02:19:32.420Z,51.20
2018-12-08T02:20:32.416Z,71.90
2018-12-08T02:21:32.405Z,101.30
2018-12-08T02:22:32.392Z,109.90
2018-12-08T02:23:32.375Z,102.00
2018-12-08T02:24:32.384Z,74.70
2018-12-08T02:25:32.370Z,94.30
2018-12-08T02:26:32.367Z,105.20
2018-12-08T02:27:32.336Z,86.50
2018-12-08T02:28:32.328Z,77.10
2018-12-08T02:29:32.322Z,75.00
2018-12-08T02:30:32.304Z,66.00
2018-12-08T02:31:32.291Z,61.90
2018-12-08T02:32:32.284Z,65.40
2018-12-08T02:33:32.277Z,88.90
2018-12-08T02:34:32.276Z,114.10
2018-12-08T02:35:32.250Z,113.90
2018-12-08T02:36:32.239Z,108.40
2018-12-08T02:37:32.229Z,106.10
2018-12-08T02:38:32.223Z,101.20
2018-12-08T02:39:32.219Z,96.10
2018-12-08T02:40:32.197Z,99.20
2018-12-08T02:41:32.204Z,91.60
2018-12-08T02:42:32.198Z,91.20
2018-12-08T02:43:32.201Z,93.20
2018-12-08T02:44:32.157Z,88.00
2018-12-08T02:45:32.149Z,87.80
2018-12-08T02:46:32.135Z,82.50
2018-12-08T02:47:32.126Z,86.30
2018-12-08T02:48:32.133Z,82.20
2018-12-08T02:49:32.099Z,80.90
2018-12-08T02:50:32.094Z,81.70
2018-12-08T02:51:32.088Z,80.50
2018-12-08T02:52:32.065Z,85.30
2018-12-08T02:53:32.063Z,78.10
2018-12-08T02:54:32.055Z,76.70
2018-12-08T02:55:32.110Z,75.70
2018-12-08T02:56:32.149Z,70.30
2018-12-08T02:57:32.022Z,77.30
2018-12-08T02:58:32.008Z,74.90
2018-12-08T02:59:32.002Z,75.30
2018-12-08T03:00:31.984Z,72.00
2018-12-08T03:01:31.985Z,74.00
2018-12-08T03:02:31.962Z,66.80
2018-12-08T03:03:31.953Z,66.00
2018-12-08T03:04:31.942Z,69.40
2018-12-08T03:05:31.937Z,65.20
2018-12-08T03:06:31.926Z,66.30
2018-12-08T03:07:31.903Z,65.40
2018-12-08T03:08:31.914Z,64.90
2018-12-08T03:09:31.895Z,60.90
2018-12-08T03:10:31.871Z,64.40
2018-12-08T03:11:31.881Z,61.20
2018-12-08T03:12:31.867Z,61.20
2018-12-08T03:13:31.841Z,61.30
2018-12-08T03:14:31.836Z,68.10
2018-12-08T03:15:31.844Z,58.00
2018-12-08T03:16:31.840Z,59.20
2018-12-08T03:17:31.805Z,61.80
2018-12-08T03:18:31.794Z,58.60
2018-12-08T03:19:31.797Z,57.10
2018-12-08T03:20:31.835Z,58.20
2018-12-08T03:21:31.921Z,57.50
2018-12-08T03:22:31.768Z,57.30
2018-12-08T03:23:31.741Z,58.80
2018-12-08T03:24:31.747Z,55.10
2018-12-08T03:25:31.717Z,56.40
2018-12-08T03:26:31.703Z,54.60
2018-12-08T03:27:31.713Z,57.20
2018-12-08T03:28:31.687Z,54.30
2018-12-08T03:29:31.679Z,51.60
2018-12-08T03:30:31.666Z,51.80
2018-12-08T03:31:31.658Z,52.20
2018-12-08T03:32:31.673Z,53.40
2018-12-08T03:33:31.633Z,56.70
2018-12-08T03:34:31.625Z,51.40
2018-12-08T03:35:31.611Z,49.50
2018-12-08T03:36:31.596Z,52.60
2018-12-08T03:37:31.592Z,50.40
2018-12-08T03:38:31.579Z,49.80
2018-12-08T03:39:31.568Z,48.60
2018-12-08T03:40:31.559Z,48.60
2018-12-08T03:41:31.555Z,46.40
2018-12-08T03:42:31.562Z,49.40
2018-12-08T03:43:31.533Z,46.70
2018-12-08T03:44:31.523Z,47.80
2018-12-08T03:45:31.513Z,45.50
2018-12-08T03:46:31.504Z,46.90
2018-12-08T03:47:31.481Z,46.20
2018-12-08T03:48:31.470Z,49.70
2018-12-08T03:49:31.458Z,46.60
2018-12-08T03:50:31.448Z,47.10
2018-12-08T03:51:31.433Z,44.40
2018-12-08T03:52:31.431Z,42.90
2018-12-08T03:53:31.421Z,44.10
2018-12-08T03:54:31.408Z,43.70
2018-12-08T03:55:31.405Z,42.90
2018-12-08T03:56:31.402Z,45.40
2018-12-08T03:57:31.370Z,41.40
2018-12-08T03:58:31.369Z,43.50
2018-12-08T03:59:31.375Z,42.60
2018-12-08T04:00:31.344Z,40.00
2018-12-08T04:01:31.336Z,42.40
2018-12-08T04:02:31.350Z,41.90
2018-12-08T04:03:31.315Z,40.10
2018-12-08T04:04:31.305Z,39.70
2018-12-08T04:05:31.307Z,40.20
2018-12-08T04:06:31.305Z,39.80
2018-12-08T04:07:31.344Z,37.40
2018-12-08T04:08:31.296Z,39.80
2018-12-08T04:09:31.254Z,38.10
2018-12-08T04:10:31.284Z,37.70
2018-12-08T04:11:31.238Z,40.10
2018-12-08T04:12:31.233Z,37.30
2018-12-08T04:13:31.235Z,36.50
2018-12-08T04:14:31.380Z,36.60
2018-12-08T04:15:31.197Z,36.70
2018-12-08T04:16:31.182Z,36.80
2018-12-08T04:17:31.219Z,38.20
2018-12-08T04:18:31.247Z,36.20
2018-12-08T04:19:31.149Z,38.80
2018-12-08T04:20:31.142Z,35.60
2018-12-08T04:21:31.126Z,37.10
2018-12-08T04:22:31.155Z,34.80
2018-12-08T04:23:31.102Z,33.40
2018-12-08T04:24:31.114Z,35.20
2018-12-08T04:25:31.100Z,33.30
2018-12-08T04:26:31.065Z,34.30
2018-12-08T04:27:31.063Z,32.10
2018-12-08T04:28:31.049Z,34.60
2018-12-08T04:29:31.035Z,34.00
2018-12-08T04:30:31.021Z,34.20
2018-12-08T04:31:31.016Z,32.80
2018-12-08T04:32:31.001Z,33.80
2018-12-08T04:33:30.996Z,35.20
2018-12-08T04:34:30.982Z,31.10
2018-12-08T04:35:30.975Z,31.40
2018-12-08T04:36:30.965Z,30.60
2018-12-08T04:37:30.955Z,29.60
2018-12-08T04:38:30.942Z,32.80
2018-12-08T04:39:30.924Z,31.40
2018-12-08T04:40:30.935Z,29.30
2018-12-08T04:41:30.909Z,31.40
2018-12-08T04:42:30.902Z,30.70
2018-12-08T04:43:30.886Z,29.10
2018-12-08T04:44:30.880Z,29.10
2018-12-08T04:45:30.866Z,30.30
2018-12-08T04:46:30.856Z,31.10
2018-12-08T04:47:30.983Z,30.80
2018-12-08T04:48:30.826Z,29.10
2018-12-08T04:49:30.834Z,27.50
2018-12-08T04:50:30.816Z,29.90
2018-12-08T04:51:30.799Z,28.40
2018-12-08T04:52:30.794Z,27.40
2018-12-08T04:53:30.779Z,28.30
2018-12-08T04:54:30.768Z,28.10
2018-12-08T04:55:30.768Z,28.90
2018-12-08T04:56:30.754Z,29.40
2018-12-08T04:57:30.741Z,27.20
2018-12-08T04:58:30.746Z,26.10
2018-12-08T04:59:30.726Z,26.10
2018-12-08T05:00:30.704Z,25.00
2018-12-08T05:01:30.691Z,26.60
2018-12-08T05:02:30.686Z,24.70
2018-12-08T05:03:30.681Z,25.10
2018-12-08T05:04:30.666Z,26.50
2018-12-08T05:05:31.217Z,23.70
2018-12-08T05:06:30.643Z,25.20
2018-12-08T05:07:30.631Z,25.10
2018-12-08T05:08:30.623Z,24.90
2018-12-08T05:09:30.615Z,25.20
2018-12-08T05:10:30.598Z,25.20
2018-12-08T05:11:30.591Z,26.80
2018-12-08T05:12:30.571Z,24.30
2018-12-08T05:13:30.572Z,25.70
2018-12-08T05:14:30.588Z,25.00
2018-12-08T05:15:30.552Z,24.00
2018-12-08T05:16:30.542Z,23.20
2018-12-08T05:17:30.517Z,23.90
2018-12-08T05:18:30.522Z,22.20
2018-12-08T05:19:30.510Z,23.80
2018-12-08T05:20:30.503Z,24.10
2018-12-08T05:21:30.490Z,22.00
2018-12-08T05:22:30.513Z,21.30
2018-12-08T05:23:30.482Z,21.10
2018-12-08T05:24:30.464Z,22.20
2018-12-08T05:25:30.446Z,21.70
2018-12-08T05:26:30.445Z,22.00
2018-12-08T05:27:30.536Z,22.30
2018-12-08T05:28:30.413Z,22.80
2018-12-08T05:29:30.465Z,23.80
2018-12-08T05:30:30.397Z,20.50
2018-12-08T05:31:30.385Z,18.80
2018-12-08T05:32:30.370Z,21.50
2018-12-08T05:33:30.350Z,21.90
2018-12-08T05:34:30.352Z,20.50
2018-12-08T05:35:30.334Z,21.30
2018-12-08T05:36:30.328Z,19.60
2018-12-08T05:37:30.324Z,20.60
2018-12-08T05:38:30.314Z,19.00
2018-12-08T05:39:30.287Z,18.30
2018-12-08T05:40:30.279Z,19.10
2018-12-08T05:41:30.270Z,20.00
2018-12-08T05:42:30.263Z,19.30
2018-12-08T05:43:30.270Z,18.10
2018-12-08T05:44:30.239Z,19.70
2018-12-08T05:45:30.227Z,17.80
2018-12-08T05:46:30.214Z,18.90
2018-12-08T05:47:30.210Z,18.60
2018-12-08T05:48:30.213Z,19.90
2018-12-08T05:49:30.188Z,17.90
2018-12-08T05:50:30.198Z,19.00
2018-12-08T05:51:30.161Z,16.70
2018-12-08T05:52:30.160Z,17.20
2018-12-08T05:53:30.139Z,16.80
2018-12-08T05:54:30.145Z,17.70
2018-12-08T05:55:30.128Z,16.60
2018-12-08T05:56:30.116Z,16.80
2018-12-08T05:57:30.097Z,17.60
2018-12-08T05:58:30.097Z,17.20
2018-12-08T05:59:30.077Z,18.20
2018-12-08T06:00:30.075Z,15.60
2018-12-08T06:01:30.064Z,17.80
2018-12-08T06:02:30.045Z,16.30
2018-12-08T06:03:30.037Z,16.30
2018-12-08T06:04:30.024Z,17.00
2018-12-08T06:05:30.021Z,15.80
2018-12-08T06:06:30.008Z,14.80
2018-12-08T06:07:30.006Z,16.40
2018-12-08T06:08:29.977Z,14.50
2018-12-08T06:09:29.974Z,14.70
2018-12-08T06:10:29.960Z,14.60
2018-12-08T06:11:29.959Z,14.60
2018-12-08T06:12:29.947Z,14.90
2018-12-08T06:13:29.928Z,15.60
2018-12-08T06:14:29.920Z,15.10
2018-12-08T06:15:29.932Z,14.00
2018-12-08T06:16:29.899Z,15.70
2018-12-08T06:17:29.891Z,13.50
2018-12-08T06:18:29.880Z,14.00
2018-12-08T06:19:29.867Z,14.90
2018-12-08T06:20:29.861Z,14.70
2018-12-08T06:21:29.844Z,14.20
2018-12-08T06:22:29.834Z,14.50
2018-12-08T06:23:29.831Z,14.20
2018-12-08T06:24:29.817Z,14.10
2018-12-08T06:25:29.809Z,13.40
2018-12-08T06:26:29.789Z,13.80
2018-12-08T06:27:29.779Z,13.40
2018-12-08T06:28:29.770Z,15.30
2018-12-08T06:29:29.763Z,14.30
2018-12-08T06:30:29.756Z,13.10
2018-12-08T06:31:29.743Z,12.50
2018-12-08T06:32:29.729Z,13.30
2018-12-08T06:33:29.717Z,12.70
2018-12-08T06:34:29.704Z,12.60
2018-12-08T06:35:29.730Z,12.70
2018-12-08T06:36:29.693Z,12.30
2018-12-08T06:37:29.699Z,14.30
2018-12-08T06:38:29.668Z,12.10
2018-12-08T06:39:29.654Z,12.80
2018-12-08T06:40:29.645Z,12.30
2018-12-08T06:41:29.647Z,13.90
2018-12-08T06:42:29.634Z,11.90
2018-12-08T06:43:29.627Z,12.80
2018-12-08T06:44:29.603Z,11.90
2018-12-08T06:45:29.586Z,12.00
2018-12-08T06:46:29.576Z,11.30
2018-12-08T06:47:29.565Z,11.00
2018-12-08T06:48:29.575Z,11.40
2018-12-08T06:49:29.552Z,11.60
2018-12-08T06:50:29.535Z,11.80
2018-12-08T06:51:29.528Z,11.90
2018-12-08T06:52:29.520Z,12.30
2018-12-08T06:53:29.503Z,11.40
2018-12-08T06:54:29.511Z,11.30
2018-12-08T06:55:29.578Z,12.40
2018-12-08T06:56:29.473Z,12.50
2018-12-08T06:57:29.460Z,12.30
2018-12-08T06:58:29.460Z,11.30
2018-12-08T06:59:29.451Z,11.60
2018-12-08T07:00:29.447Z,9.90
2018-12-08T07:01:29.427Z,9.90
2018-12-08T07:02:29.411Z,10.50
2018-12-08T07:03:29.400Z,11.00
2018-12-08T07:04:29.395Z,10.30
2018-12-08T07:05:29.379Z,10.10
2018-12-08T07:06:29.370Z,10.60
2018-12-08T07:07:29.352Z,10.10
2018-12-08T07:08:29.346Z,10.70
2018-12-08T07:09:29.338Z,10.50
2018-12-08T07:10:29.324Z,10.40
2018-12-08T07:11:29.311Z,8.70
2018-12-08T07:12:29.305Z,10.90
2018-12-08T07:13:29.296Z,10.90
2018-12-08T07:14:29.282Z,9.40
2018-12-08T07:15:29.270Z,9.40
2018-12-08T07:16:29.262Z,10.50
2018-12-08T07:17:29.253Z,9.70
2018-12-08T07:18:29.242Z,10.70
2018-12-08T07:19:29.227Z,10.80
2018-12-08T07:20:29.216Z,10.60
2018-12-08T07:21:29.215Z,9.40
2018-12-08T07:22:29.196Z,9.70
2018-12-08T07:23:29.187Z,8.90
2018-12-08T07:24:29.177Z,9.60
2018-12-08T07:25:29.165Z,9.40
2018-12-08T07:26:29.148Z,9.20
2018-12-08T07:27:29.157Z,9.00
2018-12-08T07:28:29.136Z,8.70
2018-12-08T07:29:29.123Z,8.50
2018-12-08T07:30:29.125Z,9.10
2018-12-08T07:31:29.103Z,10.10
2018-12-08T07:32:29.092Z,8.90
2018-12-08T07:33:29.086Z,8.50
2018-12-08T07:34:29.073Z,9.20
2018-12-08T07:35:29.068Z,8.80
2018-12-08T07:36:29.049Z,9.00
2018-12-08T07:37:29.039Z,8.90
2018-12-08T07:38:29.044Z,9.40
2018-12-08T07:39:29.018Z,7.40
2018-12-08T07:40:29.011Z,8.50
2018-12-08T07:41:28.992Z,8.70
2018-12-08T07:42:28.990Z,7.90
2018-12-08T07:43:28.980Z,8.40
2018-12-08T07:44:28.971Z,7.50
2018-12-08T07:45:28.956Z,8.40
2018-12-08T07:46:28.947Z,7.80
2018-12-08T07:47:28.941Z,7.10
2018-12-08T07:48:28.925Z,8.40
2018-12-08T07:49:28.908Z,8.10
2018-12-08T07:50:28.905Z,7.50
2018-12-08T07:51:28.896Z,7.80
2018-12-08T07:52:28.885Z,7.50
2018-12-08T07:53:28.868Z,7.30
2018-12-08T07:54:28.854Z,6.90
2018-12-08T07:55:28.852Z,7.00
2018-12-08T07:56:28.842Z,8.80
2018-12-08T07:57:28.857Z,7.40
2018-12-08T07:58:28.810Z,7.70
2018-12-08T07:59:28.824Z,7.10
2018-12-08T08:00:28.806Z,7.50
2018-12-08T08:01:28.783Z,7.70
2018-12-08T08:02:28.784Z,7.40
2018-12-08T08:03:28.771Z,7.40
2018-12-08T08:04:28.756Z,6.90
2018-12-08T08:05:28.746Z,6.80
2018-12-08T08:06:28.731Z,6.90
2018-12-08T08:07:28.712Z,7.70
2018-12-08T08:08:28.718Z,6.70
2018-12-08T08:09:28.701Z,6.50
2018-12-08T08:10:28.694Z,7.60
2018-12-08T08:11:28.685Z,6.60
2018-12-08T08:12:28.666Z,6.00
2018-12-08T08:13:28.671Z,5.80
2018-12-08T08:14:28.656Z,7.00
2018-12-08T08:15:28.638Z,6.00
2018-12-08T08:16:28.634Z,7.70
2018-12-08T08:17:28.618Z,6.40
2018-12-08T08:18:28.603Z,6.30
2018-12-08T08:19:28.591Z,7.10
2018-12-08T08:20:28.589Z,8.10
2018-12-08T08:21:28.575Z,6.30
2018-12-08T08:22:28.574Z,5.90
2018-12-08T08:23:28.560Z,7.70
2018-12-08T08:24:28.543Z,7.00
2018-12-08T08:25:28.532Z,6.10
2018-12-08T08:26:28.517Z,5.50
2018-12-08T08:27:28.529Z,6.00
2018-12-08T08:28:28.506Z,5.80
2018-12-08T08:29:28.499Z,7.10
2018-12-08T08:30:28.485Z,8.60
2018-12-08T08:31:28.474Z,5.60
2018-12-08T08:32:28.470Z,5.70
2018-12-08T08:33:28.444Z,6.00
2018-12-08T08:34:28.432Z,6.40
2018-12-08T08:35:28.430Z,6.10
2018-12-08T08:36:28.415Z,5.90
2018-12-08T08:37:28.408Z,6.20
2018-12-08T08:38:28.409Z,6.40
2018-12-08T08:39:28.394Z,5.70
2018-12-08T08:40:28.371Z,5.70
2018-12-08T08:41:28.353Z,5.60
2018-12-08T08:42:28.346Z,5.50
2018-12-08T08:43:28.343Z,5.00
2018-12-08T08:44:28.352Z,6.60
2018-12-08T08:45:28.321Z,4.70
2018-12-08T08:46:28.306Z,6.50
2018-12-08T08:47:28.297Z,5.10
2018-12-08T08:48:28.289Z,5.80
2018-12-08T08:49:28.280Z,5.70
2018-12-08T08:50:28.276Z,4.80
2018-12-08T08:51:28.256Z,4.90
2018-12-08T08:52:28.261Z,5.20
2018-12-08T08:53:28.231Z,4.30
2018-12-08T08:54:28.221Z,6.00
2018-12-08T08:55:28.206Z,5.20
2018-12-08T08:56:28.199Z,4.40
2018-12-08T08:57:28.189Z,4.90
2018-12-08T08:58:28.179Z,5.70
2018-12-08T08:59:28.171Z,5.00
2018-12-08T09:00:28.161Z,5.10
2018-12-08T09:01:28.158Z,4.60
2018-12-08T09:02:28.137Z,4.70
2018-12-08T09:03:28.124Z,5.20
2018-12-08T09:04:28.120Z,5.10
2018-12-08T09:05:28.102Z,5.40
2018-12-08T09:06:28.103Z,4.90
2018-12-08T09:07:28.088Z,6.00
2018-12-08T09:08:28.074Z,3.90
2018-12-08T09:09:28.089Z,5.60
2018-12-08T09:10:28.059Z,3.60
2018-12-08T09:11:28.043Z,4.60
2018-12-08T09:12:28.042Z,5.70
2018-12-08T09:13:28.035Z,4.70
2018-12-08T09:14:28.014Z,4.60
2018-12-08T09:15:28.110Z,4.90
2018-12-08T09:16:27.996Z,4.70
2018-12-08T09:17:27.979Z,4.30
2018-12-08T09:18:27.978Z,5.10
2018-12-08T09:19:27.953Z,5.30
2018-12-08T09:20:27.977Z,4.60
2018-12-08T09:21:27.959Z,5.70
2018-12-08T09:22:27.924Z,4.10
2018-12-08T09:23:27.911Z,4.70
2018-12-08T09:24:27.938Z,4.60
2018-12-08T09:25:27.897Z,6.20
2018-12-08T09:26:27.881Z,4.40
2018-12-08T09:27:27.870Z,4.70
2018-12-08T09:28:27.890Z,3.70
2018-12-08T09:29:27.850Z,4.50
2018-12-08T09:30:27.835Z,5.90
2018-12-08T09:31:27.834Z,4.90
2018-12-08T09:32:27.830Z,4.40
2018-12-08T09:33:27.807Z,4.40
2018-12-08T09:34:27.802Z,4.30
2018-12-08T09:35:27.801Z,4.50
2018-12-08T09:36:27.784Z,4.70
2018-12-08T09:37:27.877Z,4.10
2018-12-08T09:38:27.761Z,3.70
2018-12-08T09:39:27.752Z,4.60
2018-12-08T09:40:27.737Z,4.40
2018-12-08T09:41:27.720Z,5.00
2018-12-08T09:42:27.706Z,4.40
2018-12-08T09:43:27.699Z,4.00
2018-12-08T09:44:27.690Z,4.30
2018-12-08T09:45:27.681Z,4.50
2018-12-08T09:46:27.662Z,3.60
2018-12-08T09:47:27.653Z,3.90
2018-12-08T09:48:27.643Z,4.50
2018-12-08T09:49:27.636Z,3.80
2018-12-08T09:50:27.639Z,3.80
2018-12-08T09:51:27.622Z,4.40
2018-12-08T09:52:27.643Z,4.00
2018-12-08T09:53:27.593Z,4.10
2018-12-08T09:54:27.577Z,4.10
2018-12-08T09:55:27.575Z,4.30
2018-12-08T09:56:27.559Z,3.80
2018-12-08T09:57:27.560Z,3.30
2018-12-08T09:58:27.545Z,3.70
2018-12-08T09:59:27.535Z,4.70
2018-12-08T10:00:27.584Z,4.20
2018-12-08T10:01:27.513Z,3.40
2018-12-08T10:02:27.493Z,3.40
2018-12-08T10:03:27.480Z,3.30
2018-12-08T10:04:27.473Z,4.20
2018-12-08T10:05:27.461Z,3.70
2018-12-08T10:06:27.458Z,3.60
2018-12-08T10:07:27.461Z,3.60
2018-12-08T10:08:27.426Z,5.20
2018-12-08T10:09:27.433Z,3.80
2018-12-08T10:10:27.406Z,4.20
2018-12-08T10:11:27.397Z,3.80
2018-12-08T10:12:27.395Z,4.10
2018-12-08T10:13:27.401Z,3.20
2018-12-08T10:14:27.365Z,3.80
2018-12-08T10:15:27.371Z,4.20
2018-12-08T10:16:27.351Z,2.90
2018-12-08T10:17:27.339Z,3.40
2018-12-08T10:18:27.360Z,3.90
2018-12-08T10:19:27.321Z,3.30
2018-12-08T10:20:27.324Z,4.60
2018-12-08T10:21:27.292Z,3.00
2018-12-08T10:22:27.998Z,3.20
2018-12-08T10:23:27.269Z,3.50
2018-12-08T10:24:27.273Z,2.60
2018-12-08T10:25:27.259Z,3.60
2018-12-08T10:26:27.241Z,3.70
2018-12-08T10:27:27.245Z,3.60
2018-12-08T10:28:27.228Z,3.50
2018-12-08T10:29:27.206Z,3.40
2018-12-08T10:30:27.212Z,3.30
2018-12-08T10:31:27.208Z,3.70
2018-12-08T10:32:27.199Z,3.20
2018-12-08T10:33:28.265Z,3.00
2018-12-08T10:34:27.177Z,2.80
2018-12-08T10:35:27.147Z,3.50
2018-12-08T10:36:27.139Z,2.40
2018-12-08T10:37:27.133Z,3.40
2018-12-08T10:38:27.119Z,5.20
2018-12-08T10:39:27.104Z,2.40
2018-12-08T10:40:27.099Z,3.00
2018-12-08T10:41:27.082Z,3.70
2018-12-08T10:42:27.077Z,3.70
2018-12-08T10:43:27.070Z,3.50
2018-12-08T10:44:27.062Z,2.30
2018-12-08T10:45:27.040Z,3.10
2018-12-08T10:46:27.031Z,2.60
2018-12-08T10:47:27.023Z,2.50
2018-12-08T10:48:27.001Z,3.10
2018-12-08T10:49:27.006Z,3.50
2018-12-08T10:50:26.994Z,2.50
2018-12-08T10:51:26.979Z,2.80
2018-12-08T10:52:26.966Z,2.40
2018-12-08T10:53:26.961Z,2.60
2018-12-08T10:54:26.939Z,2.50
2018-12-08T10:55:26.969Z,2.80
2018-12-08T10:56:26.925Z,2.70
2018-12-08T10:57:26.908Z,2.70
2018-12-08T10:58:26.896Z,2.90
2018-12-08T10:59:26.902Z,3.20
2018-12-08T11:00:26.882Z,2.60
2018-12-08T11:01:26.891Z,3.30
2018-12-08T11:02:26.856Z,3.20
2018-12-08T11:03:26.872Z,3.40
2018-12-08T11:04:26.838Z,2.80
2018-12-08T11:05:26.844Z,2.50
2018-12-08T11:06:26.817Z,2.70
2018-12-08T11:07:26.827Z,3.00
2018-12-08T11:08:26.822Z,2.60
2018-12-08T11:09:26.783Z,3.20
2018-12-08T11:10:26.770Z,2.90
2018-12-08T11:11:26.793Z,3.10
2018-12-08T11:12:27.328Z,3.10
2018-12-08T11:13:26.763Z,3.80
2018-12-08T11:14:26.734Z,2.70
2018-12-08T11:15:26.721Z,2.90
2018-12-08T11:16:26.720Z,2.30
2018-12-08T11:17:26.700Z,2.90
2018-12-08T11:18:26.738Z,2.60
2018-12-08T11:19:26.678Z,2.50
2018-12-08T11:20:26.666Z,1.90
2018-12-08T11:21:26.657Z,3.00
2018-12-08T11:22:26.673Z,2.10
2018-12-08T11:23:26.676Z,3.10
2018-12-08T11:24:26.697Z,1.80
2018-12-08T11:25:26.606Z,2.60
2018-12-08T11:26:26.601Z,2.70
2018-12-08T11:27:26.590Z,2.40
2018-12-08T11:28:26.580Z,2.40
2018-12-08T11:29:26.573Z,2.00
2018-12-08T11:30:26.571Z,2.80
2018-12-08T11:31:26.583Z,2.20
2018-12-08T11:32:26.566Z,1.70
2018-12-08T11:33:26.530Z,2.10
2018-12-08T11:34:26.527Z,2.40
2018-12-08T11:35:26.503Z,2.90
2018-12-08T11:36:26.493Z,2.70
2018-12-08T11:37:26.495Z,2.20
2018-12-08T11:38:26.541Z,2.30
2018-12-08T11:39:26.456Z,2.00
2018-12-08T11:40:26.472Z,2.10
2018-12-08T11:41:26.446Z,2.30
2018-12-08T11:42:26.444Z,3.00
2018-12-08T11:43:26.421Z,2.60
2018-12-08T11:44:26.410Z,1.70
2018-12-08T11:45:26.394Z,2.80
2018-12-08T11:46:26.417Z,3.90
2018-12-08T11:47:26.380Z,2.80
2018-12-08T11:48:26.380Z,2.70
2018-12-08T11:49:26.357Z,2.20
2018-12-08T11:50:26.345Z,2.40
2018-12-08T11:51:26.353Z,2.10
2018-12-08T11:52:26.322Z,2.50
2018-12-08T11:53:26.341Z,2.50
2018-12-08T11:54:26.312Z,2.70
2018-12-08T11:55:30.221Z,2.20
2018-12-08T11:56:26.292Z,2.20
2018-12-08T11:57:26.276Z,2.60
2018-12-08T11:58:26.279Z,1.70
2018-12-08T11:59:26.275Z,2.20
2018-12-08T12:00:26.255Z,2.70
2018-12-08T12:01:26.227Z,2.80
2018-12-08T12:02:26.236Z,2.80
2018-12-08T12:03:26.212Z,2.30
2018-12-08T12:04:26.191Z,2.40
2018-12-08T12:05:26.855Z,2.10
2018-12-08T12:06:26.205Z,3.10
2018-12-08T12:07:26.179Z,7.10
2018-12-08T12:08:26.163Z,10.90
2018-12-08T12:09:26.149Z,15.00
2018-12-08T12:10:26.135Z,5.90
2018-12-08T12:11:26.137Z,4.60
2018-12-08T12:12:26.116Z,6.50
2018-12-08T12:13:26.102Z,5.80
2018-12-08T12:14:26.091Z,8.60
2018-12-08T12:15:26.078Z,7.80
2018-12-08T12:16:26.066Z,7.90
2018-12-08T12:17:26.053Z,5.40
2018-12-08T12:18:26.055Z,5.50
2018-12-08T12:19:26.038Z,5.10
2018-12-08T12:20:26.018Z,2.20
2018-12-08T12:21:26.023Z,6.40
2018-12-08T12:22:26.000Z,4.10
2018-12-08T12:23:25.999Z,9.20
2018-12-08T12:24:25.987Z,4.80
2018-12-08T12:25:25.971Z,2.20
2018-12-08T12:26:25.959Z,3.90
2018-12-08T12:27:25.971Z,3.90
2018-12-08T12:28:25.940Z,2.60
2018-12-08T12:29:25.927Z,1.90
2018-12-08T12:30:25.913Z,3.00
2018-12-08T12:31:25.918Z,2.10
2018-12-08T12:32:25.905Z,1.90
2018-12-08T12:33:25.897Z,3.20
2018-12-08T12:34:25.877Z,3.70
2018-12-08T12:35:25.870Z,3.10
2018-12-08T12:36:25.854Z,2.10
2018-12-08T12:37:25.834Z,3.00
2018-12-08T12:38:25.838Z,1.90
2018-12-08T12:39:25.822Z,1.60
2018-12-08T12:40:25.816Z,2.10
2018-12-08T12:41:25.805Z,2.90
2018-12-08T12:42:25.785Z,3.00
2018-12-08T12:43:25.781Z,3.00
2018-12-08T12:44:25.773Z,1.70
2018-12-08T12:45:25.758Z,3.50
2018-12-08T12:46:25.753Z,2.90
2018-12-08T12:47:25.733Z,2.20
2018-12-08T12:48:25.735Z,3.20
2018-12-08T12:49:25.717Z,3.00
2018-12-08T12:50:25.705Z,1.80
2018-12-08T12:51:25.708Z,2.60
2018-12-08T12:52:25.688Z,1.80
2018-12-08T12:53:25.693Z,2.90
2018-12-08T12:54:25.672Z,3.10
2018-12-08T12:55:25.653Z,3.20
2018-12-08T12:56:25.660Z,2.60
2018-12-08T12:57:25.651Z,3.40
2018-12-08T12:58:25.616Z,2.10
2018-12-08T12:59:25.635Z,1.80
2018-12-08T13:00:25.600Z,2.40
2018-12-08T13:01:25.593Z,1.50
2018-12-08T13:02:25.581Z,2.10
2018-12-08T13:03:25.575Z,1.30
2018-12-08T13:04:25.565Z,3.30